Time;durP1;ratioP1;P1;durP2;ratioP2;P2;SDS_P1;SDS_P2;PMS_P1;PMS_P2;Temp;Humidity;BMP_temperature;BMP_pressure;BME280_temperature;BME280_humidity;BME280_pressure;Samples;Min_cycle;Max_cycle;Signal;HPM_P1;HPM_P2
2022/02/22 00:01:31;;;;;;;;;;;7.30;98.50;;;;;;6172479;23;19989;-87
2022/02/22 00:04:36;;;;;;;;;;;;;;;;;;;;;
2022/02/22 00:07:20;;;;;;;;;;;7.30;98.60;;;;;;6172060;23;19932;-89
2022/02/22 00:13:28;;;;;;;;;;;7.30;98.50;;;;;;6151701;23;19916;-90
2022/02/22 00:19:18;;;;;;;;;;;;;;;;;;;;;
2022/02/22 00:22:26;;;;;;;;;;;;;;;;;;;;;
2022/02/22 00:25:16;;;;;;;;;;;7.40;98.60;;;;;;6069393;23;19949;-88
2022/02/22 00:40:01;;;;;;;;;;;7.30;98.60;;;;;;5985595;23;19914;-90
2022/02/22 00:43:21;;;;;;;;;;;;;;;;;;;;;
2022/02/22 00:46:08;;;;;;;;;;;7.20;98.50;;;;;;5970914;24;19959;-89
2022/02/22 00:48:49;;;;;;;;;;;7.30;98.60;;;;;;5984307;23;19932;-89
2022/02/22 00:54:37;;;;;;;;;;;7.30;98.60;;;;;;6128043;23;19904;-90
2022/02/22 00:57:48;;;;;;;;;;;7.20;98.60;;;;;;6091879;23;19919;-90
2022/02/22 01:00:43;;;;;;;;;;;;;;;;;;;;;
2022/02/22 01:03:34;;;;;;;;;;;7.10;98.80;;;;;;6129771;23;19980;-89
2022/02/22 01:06:19;;;;;;;;;;;7.10;98.80;;;;;;6130282;23;19905;-88
2022/02/22 01:09:13;;;;;;;;;;;7.10;98.80;;;;;;6213942;23;19892;-89
2022/02/22 01:12:02;;;;;;;;;;;7.00;98.80;;;;;;6180456;23;19898;-89
2022/02/22 01:14:50;;;;;;;;;;;7.00;98.90;;;;;;6216692;23;19892;-88
2022/02/22 01:17:56;;;;;;;;;;;7.00;98.90;;;;;;6184783;23;19915;-88
2022/02/22 01:27:25;;;;;;;;;;;;;;;;;;;;;
2022/02/22 01:30:35;;;;;;;;;;;6.90;98.90;;;;;;6218974;23;20044;-88
2022/02/22 01:33:50;;;;;;;;;;;6.80;99.00;;;;;;6192248;23;19947;-90
2022/02/22 01:39:22;;;;;;;;;;;;;;;;;;;;;
2022/02/22 01:41:59;;;;;;;;;;;6.70;99.10;;;;;;6218861;23;19990;-88
2022/02/22 01:44:44;;;;;;;;;;;;;;;;;;;;;
2022/02/22 01:47:16;;;;;;;;;;;6.70;99.10;;;;;;6219001;23;19991;-87
2022/02/22 01:52:53;;;;;;;;;;;6.60;99.20;;;;;;6217394;23;19923;-88
2022/02/22 01:55:36;;;;;;;;;;;6.60;99.20;;;;;;6173571;23;19935;-88
2022/02/22 02:01:30;;;;;;;;;;;;;;;;;;;;;
2022/02/22 02:04:28;;;;;;;;;;;;;;;;;;;;;
2022/02/22 02:13:25;;;;;;;;;;;6.40;99.40;;;;;;6141234;23;19916;-87
2022/02/22 02:18:48;;;;;;;;;;;6.40;99.40;;;;;;6175814;23;20314;-89
2022/02/22 02:21:36;;;;;;;;;;;6.30;99.40;;;;;;6193235;23;19927;-89
2022/02/22 02:24:33;;;;;;;;;;;6.30;99.40;;;;;;6196572;23;19904;-88
2022/02/22 02:30:26;;;;;;;;;;;6.30;99.50;;;;;;6183548;23;20242;-89
2022/02/22 02:36:19;;;;;;;;;;;6.20;99.70;;;;;;6159017;23;19912;-90
2022/02/22 02:39:06;;;;;;;;;;;;;;;;;;;;;
2022/02/22 02:42:11;;;;;;;;;;;6.20;99.70;;;;;;6224428;23;19899;-86
2022/02/22 02:45:00;;;;;;;;;;;6.20;99.70;;;;;;6218458;23;19914;-85
2022/02/22 02:47:41;;;;;;;;;;;;;;;;;;;;;
2022/02/22 02:50:28;;;;;;;;;;;6.10;99.80;;;;;;6230647;23;20338;-90
2022/02/22 02:58:45;;;;;;;;;;;6.10;99.90;;;;;;6173615;23;19912;-88
2022/02/22 03:01:26;;;;;;;;;;;;;;;;;;;;;
2022/02/22 03:04:13;;;;;;;;;;;6.00;99.90;;;;;;6189508;23;19995;-88
2022/02/22 03:06:49;;;;;;;;;;;6.00;99.90;;;;;;6189232;23;19911;-88
2022/02/22 03:12:26;;;;;;;;;;;6.00;99.90;;;;;;6175535;23;19954;-88
2022/02/22 03:17:56;;;;;;;;;;;;;;;;;;;;;
2022/02/22 03:20:42;;;;;;;;;;;5.90;99.90;;;;;;6188638;23;19994;-89
2022/02/22 03:23:29;;;;;;;;;;;;;;;;;;;;;
2022/02/22 03:29:33;;;;;;;;;;;5.90;99.90;;;;;;6186327;23;19971;-87
2022/02/22 03:32:18;;;;;;;;;;;5.90;99.90;;;;;;6186968;23;19915;-88
2022/02/22 03:35:04;;;;;;;;;;;5.90;99.90;;;;;;6188660;23;19905;-90
2022/02/22 03:37:35;;;;;;;;;;;5.80;99.90;;;;;;6164163;23;20023;-88
2022/02/22 03:40:11;;;;;;;;;;;5.80;99.90;;;;;;6188867;23;20420;-88
2022/02/22 03:42:51;;;;;;;;;;;;;;;;;;;;;
2022/02/22 03:45:28;;;;;;;;;;;5.80;99.90;;;;;;6192285;23;20307;-88
2022/02/22 03:51:21;;;;;;;;;;;;;;;;;;;;;
2022/02/22 03:54:05;;;;;;;;;;;5.70;99.90;;;;;;6212653;23;20007;-88
2022/02/22 03:57:03;;;;;;;;;;;;;;;;;;;;;
2022/02/22 03:59:35;;;;;;;;;;;5.70;99.90;;;;;;6219566;23;19952;-88
2022/02/22 04:02:34;;;;;;;;;;;;;;;;;;;;;
2022/02/22 04:08:32;;;;;;;;;;;5.70;99.90;;;;;;6199634;23;19935;-87
2022/02/22 04:14:01;;;;;;;;;;;5.70;99.90;;;;;;6226886;23;19908;-89
2022/02/22 04:16:45;;;;;;;;;;;5.70;99.90;;;;;;6169729;23;19923;-88
2022/02/22 04:22:13;;;;;;;;;;;5.70;99.90;;;;;;6175935;23;20330;-88
2022/02/22 04:28:12;;;;;;;;;;;5.70;99.90;;;;;;6219083;23;20002;-90
2022/02/22 04:30:47;;;;;;;;;;;5.80;99.90;;;;;;6171347;23;20318;-90
2022/02/22 04:33:16;;;;;;;;;;;5.70;99.90;;;;;;6192238;23;19948;-88
2022/02/22 04:36:39;;;;;;;;;;;;;;;;;;;;;
2022/02/22 04:38:38;;;;;;;;;;;5.70;99.90;;;;;;6173403;23;19946;-88
2022/02/22 04:41:07;;;;;;;;;;;5.80;99.90;;;;;;6192436;23;19904;-89
2022/02/22 04:43:35;;;;;;;;;;;5.70;99.90;;;;;;6191851;23;19904;-88
2022/02/22 04:46:35;;;;;;;;;;;5.80;99.90;;;;;;6192724;23;19904;-89
2022/02/22 04:49:12;;;;;;;;;;;;;;;;;;;;;
2022/02/22 04:51:47;;;;;;;;;;;5.70;99.90;;;;;;6217521;23;19975;-88
2022/02/22 04:54:22;;;;;;;;;;;5.70;99.90;;;;;;6162505;23;19947;-89
2022/02/22 05:00:06;;;;;;;;;;;5.70;99.90;;;;;;6189203;23;19904;-89
2022/02/22 05:02:58;;;;;;;;;;;5.70;99.90;;;;;;6169526;23;19915;-88
2022/02/22 05:05:49;;;;;;;;;;;5.70;99.90;;;;;;6191751;23;20432;-89
2022/02/22 05:08:59;;;;;;;;;;;5.70;99.90;;;;;;6192542;23;19904;-88
2022/02/22 05:11:37;;;;;;;;;;;5.70;99.90;;;;;;6218245;23;19932;-88
2022/02/22 05:14:11;;;;;;;;;;;5.70;99.90;;;;;;6170034;23;19908;-88
2022/02/22 05:16:39;;;;;;;;;;;5.60;99.90;;;;;;6192315;23;20314;-89
2022/02/22 05:19:07;;;;;;;;;;;5.60;99.90;;;;;;6192047;23;19904;-87
2022/02/22 05:22:09;;;;;;;;;;;;;;;;;;;;;
2022/02/22 05:24:40;;;;;;;;;;;5.60;99.90;;;;;;6219413;23;19979;-89
2022/02/22 05:27:19;;;;;;;;;;;5.50;99.90;;;;;;6171035;23;19943;-86
2022/02/22 05:29:48;;;;;;;;;;;5.50;99.90;;;;;;6207431;23;20315;-85
2022/02/22 05:32:36;;;;;;;;;;;5.40;99.90;;;;;;6182139;23;19915;-85
2022/02/22 05:37:35;;;;;;;;;;;5.40;99.90;;;;;;6243803;23;19904;-88
2022/02/22 05:40:19;;;;;;;;;;;5.40;99.90;;;;;;6218243;23;19908;-89
2022/02/22 05:43:03;;;;;;;;;;;5.30;99.90;;;;;;6216978;23;19908;-87
2022/02/22 05:45:41;;;;;;;;;;;;;;;;;;;;;
2022/02/22 05:48:25;;;;;;;;;;;;;;;;;;;;;
2022/02/22 05:50:53;;;;;;;;;;;5.20;99.90;;;;;;6194401;23;19983;-88
2022/02/22 05:53:19;;;;;;;;;;;5.10;99.90;;;;;;6191462;23;19904;-88
2022/02/22 05:56:07;;;;;;;;;;;5.10;99.90;;;;;;6193352;23;20269;-88
2022/02/22 05:58:43;;;;;;;;;;;5.10;99.90;;;;;;6197970;23;19912;-86
2022/02/22 06:01:16;;;;;;;;;;;5.10;99.90;;;;;;6168776;23;19908;-88
2022/02/22 06:04:11;;;;;;;;;;;5.00;99.90;;;;;;6220622;23;19904;-88
2022/02/22 06:06:47;;;;;;;;;;;5.00;99.90;;;;;;6177962;23;19907;-88
2022/02/22 06:09:18;;;;;;;;;;;5.00;99.90;;;;;;6193611;23;19904;-88
2022/02/22 06:11:49;;;;;;;;;;;5.00;99.90;;;;;;6193641;23;19904;-88
2022/02/22 06:14:25;;;;;;;;;;;5.00;99.90;;;;;;6169016;23;19908;-88
2022/02/22 06:17:24;;;;;;;;;;;;;;;;;;;;;
2022/02/22 06:20:10;;;;;;;;;;;4.90;99.90;;;;;;6220625;23;19983;-90
2022/02/22 06:22:49;;;;;;;;;;;4.90;99.90;;;;;;6194365;23;19904;-89
2022/02/22 06:25:26;;;;;;;;;;;4.90;99.90;;;;;;6193616;23;19983;-86
2022/02/22 06:28:08;;;;;;;;;;;4.90;99.90;;;;;;6193399;23;19904;-85
2022/02/22 06:31:16;;;;;;;;;;;4.90;99.90;;;;;;6170873;23;19914;-87
2022/02/22 06:33:35;;;;;;;;;;;;;;;;;;;;;
2022/02/22 06:40:11;;;;;;;;;;;;;;;;;;;;;
2022/02/22 06:42:35;;;;;;;;;;;4.90;99.90;;;;;;6214193;23;19960;-88
2022/02/22 06:45:15;;;;;;;;;;;5.00;99.90;;;;;;6170391;23;19986;-88
2022/02/22 06:50:35;;;;;;;;;;;5.10;99.90;;;;;;6219445;23;19958;-89
2022/02/22 06:53:11;;;;;;;;;;;5.10;99.90;;;;;;6165440;23;19916;-88
2022/02/22 06:56:07;;;;;;;;;;;;;;;;;;;;;
2022/02/22 06:58:43;;;;;;;;;;;5.10;99.90;;;;;;6205788;23;19983;-89
2022/02/22 07:04:00;;;;;;;;;;;5.10;99.90;;;;;;6223843;23;19904;-89
2022/02/22 07:06:35;;;;;;;;;;;5.20;99.90;;;;;;6219112;23;19892;-87
2022/02/22 07:09:06;;;;;;;;;;;5.20;99.90;;;;;;6216765;23;19908;-88
2022/02/22 07:11:35;;;;;;;;;;;5.20;99.90;;;;;;6219701;23;20315;-88
2022/02/22 07:17:11;;;;;;;;;;;5.30;99.90;;;;;;6180688;23;19938;-91
2022/02/22 07:19:39;;;;;;;;;;;5.30;99.90;;;;;;6192868;23;19908;-88
2022/02/22 07:24:56;;;;;;;;;;;5.40;99.90;;;;;;6207785;23;20235;-86
2022/02/22 07:27:24;;;;;;;;;;;5.40;99.90;;;;;;6192296;23;20341;-88
2022/02/22 07:30:13;;;;;;;;;;;;;;;;;;;;;
2022/02/22 07:32:40;;;;;;;;;;;5.50;99.90;;;;;;6220245;23;19971;-88
2022/02/22 07:35:12;;;;;;;;;;;5.50;99.90;;;;;;6193106;23;19904;-87
2022/02/22 07:38:10;;;;;;;;;;;;;;;;;;;;;
2022/02/22 07:41:01;;;;;;;;;;;5.60;99.90;;;;;;6215180;23;19978;-89
2022/02/22 07:43:45;;;;;;;;;;;;;;;;;;;;;
2022/02/22 07:46:34;;;;;;;;;;;;;;;;;;;;;
2022/02/22 07:49:13;;;;;;;;;;;;;;;;;;;;;
2022/02/22 07:58:19;;;;;;;;;;;;;;;;;;;;;
2022/02/22 08:04:43;;;;;;;;;;;;;;;;;;;;;
2022/02/22 08:07:23;;;;;;;;;;;;;;;;;;;;;
2022/02/22 08:29:28;;;;;;;;;;;;;;;;;;;;;
2022/02/22 08:32:29;;;;;;;;;;;6.50;99.90;;;;;;6232741;23;19899;-92
2022/02/22 08:41:16;;;;;;;;;;;;;;;;;;;;;
2022/02/22 08:44:05;;;;;;;;;;;6.80;99.90;;;;;;6219535;23;19945;-90
2022/02/22 08:56:29;;;;;;;;;;;;;;;;;;;;;
2022/02/22 09:05:23;;;;;;;;;;;;;;;;;;;;;
2022/02/22 09:08:19;;;;;;;;;;;;;;;;;;;;;
2022/02/22 09:14:24;;;;;;;;;;;;;;;;;;;;;
2022/02/22 09:39:39;;;;;;;;;;;;;;;;;;;;;
2022/02/22 09:54:34;;;;;;;;;;;;;;;;;;;;;
2022/02/22 09:57:24;;;;;;;;;;;8.20;99.90;;;;;;6038168;23;19934;-91
2022/02/22 09:59:51;;;;;;;;;;;8.20;99.90;;;;;;6047912;23;19898;-88
2022/02/22 10:25:54;;;;;;;;;;;8.30;99.90;;;;;;6011685;23;19914;-90
2022/02/22 10:35:18;;;;;;;;;;;;;;;;;;;;;
2022/02/22 10:38:17;;;;;;;;;;;;;;;;;;;;;
2022/02/22 10:47:50;;;;;;;;;;;;;;;;;;;;;
2022/02/22 10:53:25;;;;;;;;;;;;;;;;;;;;;
2022/02/22 10:59:32;;;;;;;;;;;8.40;99.90;;;;;;5956676;24;19991;-91
2022/02/22 11:02:17;;;;;;;;;;;;;;;;;;;;;
2022/02/22 11:05:21;;;;;;;;;;;8.50;99.90;;;;;;6107528;23;19952;-90
2022/02/22 11:12:01;;;;;;;;;;;8.60;99.90;;;;;;6176586;23;19905;-88
2022/02/22 11:14:50;;;;;;;;;;;;;;;;;;;;;
2022/02/22 11:21:33;;;;;;;;;;;8.70;99.90;;;;;;6213491;23;19908;-88
2022/02/22 11:24:24;;;;;;;;;;;;;;;;;;;;;
2022/02/22 11:27:19;;;;;;;;;;;;;;;;;;;;;
2022/02/22 11:30:06;;;;;;;;;;;;;;;;;;;;;
2022/02/22 11:33:15;;;;;;;;;;;8.70;99.90;;;;;;6231744;23;19923;-91
2022/02/22 11:36:38;;;;;;;;;;;;;;;;;;;;;
2022/02/22 11:40:10;;;;;;;;;;;;;;;;;;;;;
2022/02/22 11:42:45;;;;;;;;;;;8.70;99.90;;;;;;6211067;23;20390;-90
2022/02/22 11:54:31;;;;;;;;;;;8.60;99.90;;;;;;6126693;23;19909;-87
2022/02/22 12:01:05;;;;;;;;;;;8.60;99.90;;;;;;6034696;23;19907;-88
2022/02/22 12:04:02;;;;;;;;;;;8.60;99.90;;;;;;5959950;24;19910;-88
2022/02/22 12:07:13;;;;;;;;;;;8.60;99.90;;;;;;5970963;24;19907;-87
2022/02/22 12:15:41;;;;;;;;;;;8.60;99.90;;;;;;5976620;23;19910;-89
2022/02/22 12:19:01;;;;;;;;;;;;;;;;;;;;;
2022/02/22 12:28:16;;;;;;;;;;;;;;;;;;;;;
2022/02/22 12:31:26;;;;;;;;;;;8.70;99.90;;;;;;6153076;23;19995;-91
2022/02/22 12:52:49;;;;;;;;;;;;;;;;;;;;;
2022/02/22 12:55:54;;;;;;;;;;;;;;;;;;;;;
2022/02/22 13:05:03;;;;;;;;;;;;;;;;;;;;;
2022/02/22 13:24:49;;;;;;;;;;;;;;;;;;;;;
2022/02/22 13:46:20;;;;;;;;;;;;;;;;;;;;;
2022/02/22 13:49:26;;;;;;;;;;;;;;;;;;;;;
2022/02/22 13:52:21;;;;;;;;;;;;;;;;;;;;;
2022/02/22 13:55:21;;;;;;;;;;;;;;;;;;;;;
2022/02/22 13:58:20;;;;;;;;;;;;;;;;;;;;;
2022/02/22 14:10:36;;;;;;;;;;;;;;;;;;;;;
2022/02/22 14:13:35;;;;;;;;;;;;;;;;;;;;;
2022/02/22 14:19:55;;;;;;;;;;;;;;;;;;;;;
2022/02/22 14:29:09;;;;;;;;;;;;;;;;;;;;;
2022/02/22 14:44:27;;;;;;;;;;;;;;;;;;;;;
2022/02/22 14:53:33;;;;;;;;;;;;;;;;;;;;;
2022/02/22 14:56:29;;;;;;;;;;;;;;;;;;;;;
2022/02/22 14:59:24;;;;;;;;;;;10.20;99.90;;;;;;5951601;24;19993;-89
2022/02/22 15:02:08;;;;;;;;;;;10.20;99.90;;;;;;5937939;24;19910;-90
2022/02/22 15:05:35;;;;;;;;;;;10.20;99.90;;;;;;6009783;23;19940;-90
2022/02/22 15:07:53;;;;;;;;;;;10.20;99.90;;;;;;6012973;23;19910;-90
2022/02/22 15:11:31;;;;;;;;;;;;;;;;;;;;;
2022/02/22 15:14:02;;;;;;;;;;;10.20;99.90;;;;;;5999211;23;19950;-89
2022/02/22 15:20:14;;;;;;;;;;;10.30;99.90;;;;;;6102117;23;19909;-91
2022/02/22 15:26:13;;;;;;;;;;;;;;;;;;;;;
2022/02/22 15:29:00;;;;;;;;;;;10.20;99.90;;;;;;6154552;23;19986;-90
2022/02/22 15:31:40;;;;;;;;;;;;;;;;;;;;;
2022/02/22 15:34:26;;;;;;;;;;;10.30;99.90;;;;;;6219748;23;20065;-89
2022/02/22 15:37:21;;;;;;;;;;;;;;;;;;;;;
2022/02/22 15:40:19;;;;;;;;;;;10.20;99.90;;;;;;6191442;23;19999;-90
2022/02/22 15:46:05;;;;;;;;;;;;;;;;;;;;;
2022/02/22 15:48:57;;;;;;;;;;;10.20;99.90;;;;;;6219201;23;19966;-90
2022/02/22 15:52:04;;;;;;;;;;;;;;;;;;;;;
2022/02/22 15:54:58;;;;;;;;;;;10.20;99.90;;;;;;6219347;23;19991;-91
2022/02/22 16:01:02;;;;;;;;;;;10.20;99.90;;;;;;6199376;23;19908;-90
2022/02/22 16:03:45;;;;;;;;;;;10.20;99.90;;;;;;6193387;23;19904;-90
2022/02/22 16:09:42;;;;;;;;;;;10.20;99.90;;;;;;6214869;23;20230;-90
2022/02/22 16:15:28;;;;;;;;;;;10.20;99.90;;;;;;6201302;23;19914;-89
2022/02/22 16:18:18;;;;;;;;;;;10.20;99.90;;;;;;6212602;23;19920;-93
2022/02/22 16:20:59;;;;;;;;;;;;;;;;;;;;;
2022/02/22 16:23:58;;;;;;;;;;;10.20;99.90;;;;;;6243952;23;19923;-92
2022/02/22 16:26:34;;;;;;;;;;;10.20;99.90;;;;;;6214237;23;20303;-92
2022/02/22 16:29:13;;;;;;;;;;;;;;;;;;;;;
2022/02/22 16:31:50;;;;;;;;;;;10.20;99.90;;;;;;6220170;23;19982;-88
2022/02/22 16:34:19;;;;;;;;;;;10.20;99.90;;;;;;6193290;23;19969;-91
2022/02/22 16:36:57;;;;;;;;;;;10.20;99.90;;;;;;6193264;23;19908;-91
2022/02/22 16:39:56;;;;;;;;;;;;;;;;;;;;;
2022/02/22 16:43:02;;;;;;;;;;;10.20;99.90;;;;;;6219726;23;19974;-92
2022/02/22 16:46:04;;;;;;;;;;;;;;;;;;;;;
2022/02/22 16:48:32;;;;;;;;;;;10.20;99.90;;;;;;6220193;23;19944;-92
2022/02/22 16:51:26;;;;;;;;;;;10.20;99.90;;;;;;6168162;23;19908;-92
2022/02/22 16:54:14;;;;;;;;;;;10.20;99.90;;;;;;6140571;23;19915;-93
2022/02/22 16:56:42;;;;;;;;;;;10.20;99.90;;;;;;6222146;23;19908;-90
2022/02/22 16:59:41;;;;;;;;;;;;;;;;;;;;;
2022/02/22 17:02:40;;;;;;;;;;;10.20;99.90;;;;;;6218427;23;19942;-85
2022/02/22 17:05:35;;;;;;;;;;;10.20;99.90;;;;;;6200820;23;20478;-90
2022/02/22 17:08:26;;;;;;;;;;;10.20;99.90;;;;;;6201295;23;19911;-92
2022/02/22 17:11:15;;;;;;;;;;;;;;;;;;;;;
2022/02/22 17:14:07;;;;;;;;;;;10.20;99.90;;;;;;6200350;23;20353;-91
2022/02/22 17:17:09;;;;;;;;;;;10.20;99.90;;;;;;6192160;23;19908;-91
2022/02/22 17:19:46;;;;;;;;;;;10.20;99.90;;;;;;6192203;23;19915;-90
2022/02/22 17:22:53;;;;;;;;;;;10.20;99.90;;;;;;6167409;23;19987;-89
2022/02/22 17:25:38;;;;;;;;;;;;;;;;;;;;;
2022/02/22 17:31:19;;;;;;;;;;;10.20;99.90;;;;;;6142272;23;20235;-91
2022/02/22 17:34:14;;;;;;;;;;;10.20;99.90;;;;;;6122354;23;19905;-91
2022/02/22 17:37:00;;;;;;;;;;;10.20;99.90;;;;;;6132601;23;19909;-90
2022/02/22 17:39:28;;;;;;;;;;;10.20;99.90;;;;;;6133124;23;19909;-90
2022/02/22 17:42:06;;;;;;;;;;;;;;;;;;;;;
2022/02/22 17:44:43;;;;;;;;;;;10.20;99.90;;;;;;6135336;23;19979;-90
2022/02/22 17:47:30;;;;;;;;;;;10.20;99.90;;;;;;6133307;23;19960;-90
2022/02/22 17:53:02;;;;;;;;;;;10.20;99.90;;;;;;6155329;23;19912;-90
2022/02/22 17:55:37;;;;;;;;;;;10.10;99.90;;;;;;6186152;23;19896;-89
2022/02/22 17:58:10;;;;;;;;;;;10.10;99.90;;;;;;6136374;23;19907;-92
2022/02/22 18:00:42;;;;;;;;;;;10.00;99.90;;;;;;6158747;23;19974;-89
2022/02/22 18:06:47;;;;;;;;;;;10.00;99.90;;;;;;6134971;23;19905;-90
2022/02/22 18:09:27;;;;;;;;;;;9.90;99.90;;;;;;6130397;23;19909;-90
2022/02/22 18:15:10;;;;;;;;;;;;;;;;;;;;;
2022/02/22 18:21:12;;;;;;;;;;;;;;;;;;;;;
2022/02/22 18:23:43;;;;;;;;;;;9.60;99.90;;;;;;6175951;23;19970;-89
2022/02/22 18:26:26;;;;;;;;;;;9.60;99.90;;;;;;6168853;23;19924;-88
2022/02/22 18:29:03;;;;;;;;;;;9.50;99.90;;;;;;6193178;23;19904;-90
2022/02/22 18:31:41;;;;;;;;;;;;;;;;;;;;;
2022/02/22 18:34:30;;;;;;;;;;;9.40;99.90;;;;;;6201485;23;19943;-90
2022/02/22 18:37:13;;;;;;;;;;;;;;;;;;;;;
2022/02/22 18:39:54;;;;;;;;;;;;;;;;;;;;;
2022/02/22 18:42:32;;;;;;;;;;;9.10;99.90;;;;;;6226072;23;19924;-90
2022/02/22 18:45:12;;;;;;;;;;;9.10;99.90;;;;;;6198800;23;20282;-89
2022/02/22 18:47:41;;;;;;;;;;;8.90;99.90;;;;;;6199746;23;19904;-90
2022/02/22 18:50:10;;;;;;;;;;;8.80;99.80;;;;;;6199454;23;19993;-88
2022/02/22 18:53:00;;;;;;;;;;;;;;;;;;;;;
2022/02/22 18:55:35;;;;;;;;;;;8.70;99.70;;;;;;6225924;23;19943;-88
2022/02/22 18:58:21;;;;;;;;;;;8.70;99.90;;;;;;6198852;23;20269;-92
2022/02/22 19:01:05;;;;;;;;;;;8.60;99.60;;;;;;6175691;23;19991;-90
2022/02/22 19:03:40;;;;;;;;;;;8.60;99.90;;;;;;6171214;23;19908;-91
2022/02/22 19:06:30;;;;;;;;;;;8.60;99.90;;;;;;6198864;23;19916;-89
2022/02/22 19:09:11;;;;;;;;;;;8.50;99.80;;;;;;6224390;23;19911;-89
2022/02/22 19:11:57;;;;;;;;;;;;;;;;;;;;;
2022/02/22 19:14:53;;;;;;;;;;;8.40;99.60;;;;;;6225528;23;20319;-89
2022/02/22 19:17:42;;;;;;;;;;;8.40;99.70;;;;;;6201778;23;19912;-90
2022/02/22 19:20:08;;;;;;;;;;;8.30;99.80;;;;;;6181053;23;19958;-90
2022/02/22 19:22:40;;;;;;;;;;;8.30;99.90;;;;;;6199540;23;19995;-90
2022/02/22 19:28:18;;;;;;;;;;;8.30;99.90;;;;;;6214813;23;19916;-95
2022/02/22 19:31:17;;;;;;;;;;;;;;;;;;;;;
2022/02/22 19:33:43;;;;;;;;;;;8.20;99.90;;;;;;6215031;23;19892;-91
2022/02/22 19:36:19;;;;;;;;;;;8.20;99.90;;;;;;6197258;23;19912;-89
2022/02/22 19:39:13;;;;;;;;;;;8.10;99.90;;;;;;6194999;23;19937;-91
2022/02/22 19:41:51;;;;;;;;;;;8.10;99.90;;;;;;6186992;23;19905;-88
2022/02/22 19:44:33;;;;;;;;;;;;;;;;;;;;;
2022/02/22 19:47:50;;;;;;;;;;;;;;;;;;;;;
2022/02/22 19:50:20;;;;;;;;;;;;;;;;;;;;;
2022/02/22 19:55:46;;;;;;;;;;;7.90;99.90;;;;;;6197573;23;19944;-89
2022/02/22 19:58:21;;;;;;;;;;;7.90;99.90;;;;;;6194826;23;19912;-91
2022/02/22 20:01:10;;;;;;;;;;;7.80;99.90;;;;;;6177941;23;19913;-86
2022/02/22 20:03:38;;;;;;;;;;;7.80;99.90;;;;;;6203197;23;20215;-86
2022/02/22 20:06:17;;;;;;;;;;;7.80;99.90;;;;;;6178813;23;19908;-86
2022/02/22 20:09:01;;;;;;;;;;;;;;;;;;;;;
2022/02/22 20:14:22;;;;;;;;;;;7.70;99.90;;;;;;6200770;23;19908;-90
2022/02/22 20:17:10;;;;;;;;;;;7.70;99.90;;;;;;6195070;23;19919;-89
2022/02/22 20:19:47;;;;;;;;;;;7.70;99.90;;;;;;6196881;23;20280;-89
2022/02/22 20:22:38;;;;;;;;;;;7.70;99.90;;;;;;6196521;23;19904;-90
2022/02/22 20:25:42;;;;;;;;;;;7.70;99.90;;;;;;6210589;23;19923;-91
2022/02/22 20:28:40;;;;;;;;;;;;;;;;;;;;;
2022/02/22 20:31:10;;;;;;;;;;;7.70;99.90;;;;;;6224628;23;19943;-90
2022/02/22 20:37:02;;;;;;;;;;;7.70;99.90;;;;;;6209446;23;19991;-90
2022/02/22 20:39:38;;;;;;;;;;;;;;;;;;;;;
2022/02/22 20:42:08;;;;;;;;;;;7.70;99.90;;;;;;6227179;23;19924;-90
2022/02/22 20:44:40;;;;;;;;;;;7.70;99.90;;;;;;6200067;23;19927;-90
2022/02/22 20:47:21;;;;;;;;;;;7.80;99.90;;;;;;6200100;23;19983;-92
2022/02/22 20:49:56;;;;;;;;;;;7.80;99.90;;;;;;6198856;23;19956;-90
2022/02/22 20:52:54;;;;;;;;;;;7.80;99.90;;;;;;6199884;23;19907;-89
2022/02/22 20:55:32;;;;;;;;;;;7.80;99.90;;;;;;6173900;23;19952;-91
2022/02/22 20:58:24;;;;;;;;;;;7.90;99.90;;;;;;6190107;23;19907;-90
2022/02/22 21:01:10;;;;;;;;;;;7.90;99.90;;;;;;6218432;23;19919;-91
2022/02/22 21:03:54;;;;;;;;;;;;;;;;;;;;;
2022/02/22 21:06:30;;;;;;;;;;;7.90;99.90;;;;;;6214935;23;19908;-91
2022/02/22 21:09:15;;;;;;;;;;;;;;;;;;;;;
2022/02/22 21:12:18;;;;;;;;;;;;;;;;;;;;;
2022/02/22 21:15:16;;;;;;;;;;;;;;;;;;;;;
2022/02/22 21:18:02;;;;;;;;;;;7.80;99.90;;;;;;6227459;23;19943;-90
2022/02/22 21:20:56;;;;;;;;;;;;;;;;;;;;;
2022/02/22 21:23:34;;;;;;;;;;;7.80;99.90;;;;;;6223106;23;19936;-91
2022/02/22 21:28:48;;;;;;;;;;;7.80;99.90;;;;;;6148290;23;19933;-89
2022/02/22 21:31:27;;;;;;;;;;;7.80;99.90;;;;;;6139229;23;19905;-91
2022/02/22 21:34:08;;;;;;;;;;;7.80;99.90;;;;;;6135029;23;19932;-90
2022/02/22 21:36:57;;;;;;;;;;;7.70;99.90;;;;;;6163680;23;19909;-89
2022/02/22 21:39:33;;;;;;;;;;;7.70;99.90;;;;;;6159031;23;20343;-89
2022/02/22 21:42:09;;;;;;;;;;;7.70;99.90;;;;;;6133390;23;19924;-90
2022/02/22 21:44:45;;;;;;;;;;;7.70;99.90;;;;;;6132593;23;19991;-90
2022/02/22 21:50:13;;;;;;;;;;;7.70;99.90;;;;;;6124731;23;19905;-89
2022/02/22 21:52:51;;;;;;;;;;;;;;;;;;;;;
2022/02/22 21:55:35;;;;;;;;;;;7.70;99.90;;;;;;6158586;23;19987;-90
2022/02/22 21:58:31;;;;;;;;;;;;;;;;;;;;;
2022/02/22 22:07:09;;;;;;;;;;;7.70;99.90;;;;;;6103782;23;19905;-91
2022/02/22 22:10:10;;;;;;;;;;;7.70;99.90;;;;;;6157870;23;19905;-91
2022/02/22 22:13:16;;;;;;;;;;;;;;;;;;;;;
2022/02/22 22:16:26;;;;;;;;;;;;;;;;;;;;;
2022/02/22 22:18:44;;;;;;;;;;;7.60;99.90;;;;;;6152842;23;19913;-90
2022/02/22 22:21:17;;;;;;;;;;;7.60;99.90;;;;;;6134010;23;19912;-90
2022/02/22 22:24:08;;;;;;;;;;;7.60;99.90;;;;;;6134857;23;19908;-90
2022/02/22 22:26:39;;;;;;;;;;;7.50;99.90;;;;;;6112615;23;19995;-88
2022/02/22 22:29:46;;;;;;;;;;;7.60;99.90;;;;;;6158091;23;19908;-90
2022/02/22 22:32:11;;;;;;;;;;;7.50;99.90;;;;;;6158559;23;19912;-89
2022/02/22 22:34:50;;;;;;;;;;;7.50;99.90;;;;;;6183617;23;19903;-89
2022/02/22 22:37:21;;;;;;;;;;;7.50;99.90;;;;;;6158901;23;19901;-90
2022/02/22 22:40:00;;;;;;;;;;;7.50;99.90;;;;;;6154354;23;19966;-90
2022/02/22 22:45:30;;;;;;;;;;;7.40;99.90;;;;;;6161785;23;19965;-91
2022/02/22 22:53:37;;;;;;;;;;;7.30;99.90;;;;;;6161078;23;19963;-90
2022/02/22 22:56:15;;;;;;;;;;;;;;;;;;;;;
2022/02/22 22:58:46;;;;;;;;;;;7.30;99.90;;;;;;6164611;23;19951;-89
2022/02/22 23:01:40;;;;;;;;;;;7.20;99.90;;;;;;6157078;23;19905;-87
2022/02/22 23:04:35;;;;;;;;;;;7.20;99.90;;;;;;6180125;23;19905;-88
2022/02/22 23:16:01;;;;;;;;;;;7.10;99.90;;;;;;6160743;23;20231;-90
2022/02/22 23:18:57;;;;;;;;;;;;;;;;;;;;;
2022/02/22 23:21:46;;;;;;;;;;;7.00;99.90;;;;;;6160423;23;19972;-87
2022/02/22 23:24:31;;;;;;;;;;;7.00;99.90;;;;;;6138604;23;19928;-91
2022/02/22 23:27:07;;;;;;;;;;;6.90;99.90;;;;;;6142502;23;19991;-89
2022/02/22 23:29:38;;;;;;;;;;;6.90;99.90;;;;;;6138515;23;19956;-90
2022/02/22 23:32:26;;;;;;;;;;;6.90;99.90;;;;;;6164430;23;19950;-91
2022/02/22 23:35:00;;;;;;;;;;;6.90;99.90;;;;;;6163802;23;20323;-90
2022/02/22 23:37:31;;;;;;;;;;;6.90;99.90;;;;;;6163954;23;19912;-91
2022/02/22 23:43:00;;;;;;;;;;;;;;;;;;;;;
2022/02/22 23:46:01;;;;;;;;;;;6.80;99.90;;;;;;6190346;23;20003;-89
2022/02/22 23:48:39;;;;;;;;;;;6.80;99.90;;;;;;6163645;23;19935;-89
2022/02/22 23:51:31;;;;;;;;;;;6.70;99.90;;;;;;6163969;23;19904;-89
2022/02/22 23:54:09;;;;;;;;;;;6.80;99.90;;;;;;6143753;23;19908;-91
2022/02/22 23:56:39;;;;;;;;;;;6.80;99.90;;;;;;6163695;23;20330;-90
